sensor_id;sensor_type;location;lat;lon;timestamp;temperature;humidity
12769;DHT22;6448;48.916;8.990;2023-07-30T00:00:20;25.30;57.10
12769;DHT22;6448;48.916;8.990;2023-07-30T00:01:20;25.40;57.20
12769;DHT22;6448;48.916;8.990;2023-07-30T00:02:23;25.40;57.30
12769;DHT22;6448;48.916;8.990;2023-07-30T00:03:24;25.40;57.30
12769;DHT22;6448;48.916;8.990;2023-07-30T00:04:26;25.30;57.20
12769;DHT22;6448;48.916;8.990;2023-07-30T00:05:27;25.30;57.20
12769;DHT22;6448;48.916;8.990;2023-07-30T00:06:28;25.30;57.20
12769;DHT22;6448;48.916;8.990;2023-07-30T00:07:29;25.20;57.20
12769;DHT22;6448;48.916;8.990;2023-07-30T00:08:31;25.30;57.20
12769;DHT22;6448;48.916;8.990;2023-07-30T00:09:32;25.30;57.20
12769;DHT22;6448;48.916;8.990;2023-07-30T00:10:35;25.20;57.20
12769;DHT22;6448;48.916;8.990;2023-07-30T00:11:36;25.30;57.20
12769;DHT22;6448;48.916;8.990;2023-07-30T00:12:38;25.20;57.10
12769;DHT22;6448;48.916;8.990;2023-07-30T00:13:39;25.20;57.20
12769;DHT22;6448;48.916;8.990;2023-07-30T00:14:41;25.20;57.00
12769;DHT22;6448;48.916;8.990;2023-07-30T00:15:42;25.20;56.80
12769;DHT22;6448;48.916;8.990;2023-07-30T00:16:43;25.20;56.90
12769;DHT22;6448;48.916;8.990;2023-07-30T00:17:45;25.20;56.90
12769;DHT22;6448;48.916;8.990;2023-07-30T00:18:47;25.20;56.90
12769;DHT22;6448;48.916;8.990;2023-07-30T00:19:48;25.20;56.80
12769;DHT22;6448;48.916;8.990;2023-07-30T00:20:50;25.20;56.70
12769;DHT22;6448;48.916;8.990;2023-07-30T00:21:51;25.20;56.60
12769;DHT22;6448;48.916;8.990;2023-07-30T00:22:51;25.20;56.60
12769;DHT22;6448;48.916;8.990;2023-07-30T00:23:53;25.20;56.40
12769;DHT22;6448;48.916;8.990;2023-07-30T00:24:54;25.20;56.30
12769;DHT22;6448;48.916;8.990;2023-07-30T00:25:56;25.20;56.20
12769;DHT22;6448;48.916;8.990;2023-07-30T00:26:56;25.20;56.10
12769;DHT22;6448;48.916;8.990;2023-07-30T00:27:58;25.10;56.00
12769;DHT22;6448;48.916;8.990;2023-07-30T00:28:59;25.10;56.00
12769;DHT22;6448;48.916;8.990;2023-07-30T00:30:01;25.10;56.00
12769;DHT22;6448;48.916;8.990;2023-07-30T00:31:02;25.10;55.90
12769;DHT22;6448;48.916;8.990;2023-07-30T00:32:04;25.10;55.90
12769;DHT22;6448;48.916;8.990;2023-07-30T00:33:06;25.10;56.10
12769;DHT22;6448;48.916;8.990;2023-07-30T00:34:09;25.10;56.20
12769;DHT22;6448;48.916;8.990;2023-07-30T00:35:10;25.10;56.30
12769;DHT22;6448;48.916;8.990;2023-07-30T00:36:11;25.00;56.30
12769;DHT22;6448;48.916;8.990;2023-07-30T00:37:12;25.10;56.40
12769;DHT22;6448;48.916;8.990;2023-07-30T00:38:14;25.00;56.30
12769;DHT22;6448;48.916;8.990;2023-07-30T00:39:16;25.00;56.30
12769;DHT22;6448;48.916;8.990;2023-07-30T00:40:18;25.00;56.20
12769;DHT22;6448;48.916;8.990;2023-07-30T00:41:19;25.00;56.20
12769;DHT22;6448;48.916;8.990;2023-07-30T00:42:21;25.00;56.00
12769;DHT22;6448;48.916;8.990;2023-07-30T00:43:22;25.00;55.80
12769;DHT22;6448;48.916;8.990;2023-07-30T00:44:24;25.00;55.70
12769;DHT22;6448;48.916;8.990;2023-07-30T00:45:24;25.00;55.70
12769;DHT22;6448;48.916;8.990;2023-07-30T00:46:28;25.00;55.80
12769;DHT22;6448;48.916;8.990;2023-07-30T00:47:29;25.00;55.80
12769;DHT22;6448;48.916;8.990;2023-07-30T00:48:33;25.00;55.80
12769;DHT22;6448;48.916;8.990;2023-07-30T00:49:34;25.00;55.90
12769;DHT22;6448;48.916;8.990;2023-07-30T00:50:35;25.00;56.00
12769;DHT22;6448;48.916;8.990;2023-07-30T00:51:37;25.00;56.00
12769;DHT22;6448;48.916;8.990;2023-07-30T00:52:38;25.00;56.00
12769;DHT22;6448;48.916;8.990;2023-07-30T00:53:41;25.00;56.00
12769;DHT22;6448;48.916;8.990;2023-07-30T00:54:41;25.00;56.00
12769;DHT22;6448;48.916;8.990;2023-07-30T00:55:44;25.00;56.00
12769;DHT22;6448;48.916;8.990;2023-07-30T00:56:49;25.00;56.00
12769;DHT22;6448;48.916;8.990;2023-07-30T00:57:52;25.00;55.90
12769;DHT22;6448;48.916;8.990;2023-07-30T00:58:53;25.00;55.90
12769;DHT22;6448;48.916;8.990;2023-07-30T00:59:56;25.00;55.90
12769;DHT22;6448;48.916;8.990;2023-07-30T01:00:57;25.00;55.90
12769;DHT22;6448;48.916;8.990;2023-07-30T01:01:59;24.90;55.90
12769;DHT22;6448;48.916;8.990;2023-07-30T01:03:02;24.90;55.90
12769;DHT22;6448;48.916;8.990;2023-07-30T01:04:06;24.90;55.90
12769;DHT22;6448;48.916;8.990;2023-07-30T01:05:07;24.90;55.90
12769;DHT22;6448;48.916;8.990;2023-07-30T01:06:09;24.90;55.90
12769;DHT22;6448;48.916;8.990;2023-07-30T01:07:10;24.90;55.90
12769;DHT22;6448;48.916;8.990;2023-07-30T01:08:12;24.90;55.90
12769;DHT22;6448;48.916;8.990;2023-07-30T01:09:13;24.90;55.80
12769;DHT22;6448;48.916;8.990;2023-07-30T01:10:15;24.80;55.80
12769;DHT22;6448;48.916;8.990;2023-07-30T01:11:17;24.90;55.70
12769;DHT22;6448;48.916;8.990;2023-07-30T01:12:20;24.90;55.70
12769;DHT22;6448;48.916;8.990;2023-07-30T01:13:21;24.80;55.60
12769;DHT22;6448;48.916;8.990;2023-07-30T01:14:23;24.80;55.60
12769;DHT22;6448;48.916;8.990;2023-07-30T01:15:26;24.80;55.60
12769;DHT22;6448;48.916;8.990;2023-07-30T01:16:28;24.80;55.60
12769;DHT22;6448;48.916;8.990;2023-07-30T01:17:29;24.80;55.60
12769;DHT22;6448;48.916;8.990;2023-07-30T01:18:31;24.80;55.50
12769;DHT22;6448;48.916;8.990;2023-07-30T01:19:34;24.90;55.60
12769;DHT22;6448;48.916;8.990;2023-07-30T01:20:35;24.70;55.50
12769;DHT22;6448;48.916;8.990;2023-07-30T01:21:38;24.70;55.50
12769;DHT22;6448;48.916;8.990;2023-07-30T01:22:39;24.70;55.60
12769;DHT22;6448;48.916;8.990;2023-07-30T01:23:41;24.70;55.70
12769;DHT22;6448;48.916;8.990;2023-07-30T01:24:43;24.70;56.30
12769;DHT22;6448;48.916;8.990;2023-07-30T01:25:44;24.70;55.70
12769;DHT22;6448;48.916;8.990;2023-07-30T01:26:53;24.70;55.70
12769;DHT22;6448;48.916;8.990;2023-07-30T01:27:59;24.70;55.80
12769;DHT22;6448;48.916;8.990;2023-07-30T01:29:06;24.70;55.90
12769;DHT22;6448;48.916;8.990;2023-07-30T01:30:15;24.70;56.00
12769;DHT22;6448;48.916;8.990;2023-07-30T01:31:19;24.70;56.10
12769;DHT22;6448;48.916;8.990;2023-07-30T01:32:24;24.70;56.20
12769;DHT22;6448;48.916;8.990;2023-07-30T01:33:26;24.80;56.30
12769;DHT22;6448;48.916;8.990;2023-07-30T01:34:28;24.70;56.30
12769;DHT22;6448;48.916;8.990;2023-07-30T01:35:30;24.70;56.30
12769;DHT22;6448;48.916;8.990;2023-07-30T01:36:33;24.70;56.40
12769;DHT22;6448;48.916;8.990;2023-07-30T01:37:39;24.70;56.50
12769;DHT22;6448;48.916;8.990;2023-07-30T01:38:42;24.70;56.50
12769;DHT22;6448;48.916;8.990;2023-07-30T01:39:45;24.70;56.60
12769;DHT22;6448;48.916;8.990;2023-07-30T01:40:46;24.70;56.60
12769;DHT22;6448;48.916;8.990;2023-07-30T01:41:48;24.70;56.50
12769;DHT22;6448;48.916;8.990;2023-07-30T01:42:49;24.70;56.50
12769;DHT22;6448;48.916;8.990;2023-07-30T01:43:52;24.70;56.60
12769;DHT22;6448;48.916;8.990;2023-07-30T01:44:52;24.70;56.60
12769;DHT22;6448;48.916;8.990;2023-07-30T01:45:54;24.80;56.70
12769;DHT22;6448;48.916;8.990;2023-07-30T01:46:56;24.80;56.70
12769;DHT22;6448;48.916;8.990;2023-07-30T01:47:57;24.80;56.70
12769;DHT22;6448;48.916;8.990;2023-07-30T01:48:58;24.80;56.70
12769;DHT22;6448;48.916;8.990;2023-07-30T01:50:00;24.80;56.70
12769;DHT22;6448;48.916;8.990;2023-07-30T01:51:01;24.80;56.70
12769;DHT22;6448;48.916;8.990;2023-07-30T01:52:03;24.80;56.70
12769;DHT22;6448;48.916;8.990;2023-07-30T01:53:05;24.80;56.70
12769;DHT22;6448;48.916;8.990;2023-07-30T01:54:07;24.80;56.70
12769;DHT22;6448;48.916;8.990;2023-07-30T01:55:09;24.80;56.70
12769;DHT22;6448;48.916;8.990;2023-07-30T01:56:09;24.80;56.80
12769;DHT22;6448;48.916;8.990;2023-07-30T01:57:11;24.80;56.70
12769;DHT22;6448;48.916;8.990;2023-07-30T01:58:13;24.80;56.70
12769;DHT22;6448;48.916;8.990;2023-07-30T01:59:15;24.80;56.70
12769;DHT22;6448;48.916;8.990;2023-07-30T02:00:16;24.80;56.70
12769;DHT22;6448;48.916;8.990;2023-07-30T02:01:17;24.80;56.70
12769;DHT22;6448;48.916;8.990;2023-07-30T02:02:18;24.80;56.70
12769;DHT22;6448;48.916;8.990;2023-07-30T02:03:19;24.80;56.70
12769;DHT22;6448;48.916;8.990;2023-07-30T02:04:21;24.80;56.70
12769;DHT22;6448;48.916;8.990;2023-07-30T02:05:22;24.80;56.70
12769;DHT22;6448;48.916;8.990;2023-07-30T02:06:23;24.80;56.70
12769;DHT22;6448;48.916;8.990;2023-07-30T02:07:24;24.80;56.80
12769;DHT22;6448;48.916;8.990;2023-07-30T02:08:27;24.80;56.70
12769;DHT22;6448;48.916;8.990;2023-07-30T02:09:28;24.80;56.90
12769;DHT22;6448;48.916;8.990;2023-07-30T02:10:30;24.80;56.80
12769;DHT22;6448;48.916;8.990;2023-07-30T02:11:31;24.80;56.90
12769;DHT22;6448;48.916;8.990;2023-07-30T02:12:32;24.80;56.90
12769;DHT22;6448;48.916;8.990;2023-07-30T02:13:33;24.80;56.90
12769;DHT22;6448;48.916;8.990;2023-07-30T02:14:35;24.80;56.90
12769;DHT22;6448;48.916;8.990;2023-07-30T02:15:40;24.80;56.80
12769;DHT22;6448;48.916;8.990;2023-07-30T02:16:41;24.80;56.90
12769;DHT22;6448;48.916;8.990;2023-07-30T02:17:42;24.80;56.90
12769;DHT22;6448;48.916;8.990;2023-07-30T02:18:44;24.80;56.90
12769;DHT22;6448;48.916;8.990;2023-07-30T02:19:45;24.80;56.80
12769;DHT22;6448;48.916;8.990;2023-07-30T02:20:47;24.80;56.80
12769;DHT22;6448;48.916;8.990;2023-07-30T02:21:48;24.80;56.70
12769;DHT22;6448;48.916;8.990;2023-07-30T02:22:50;24.80;56.70
12769;DHT22;6448;48.916;8.990;2023-07-30T02:23:52;24.80;56.70
12769;DHT22;6448;48.916;8.990;2023-07-30T02:24:54;24.80;56.70
12769;DHT22;6448;48.916;8.990;2023-07-30T02:25:57;24.80;56.80
12769;DHT22;6448;48.916;8.990;2023-07-30T02:26:59;24.80;56.70
12769;DHT22;6448;48.916;8.990;2023-07-30T02:28:00;24.90;56.80
12769;DHT22;6448;48.916;8.990;2023-07-30T02:29:02;24.80;56.70
12769;DHT22;6448;48.916;8.990;2023-07-30T02:30:04;24.80;56.70
12769;DHT22;6448;48.916;8.990;2023-07-30T02:31:06;24.80;56.70
12769;DHT22;6448;48.916;8.990;2023-07-30T02:32:07;24.80;56.60
12769;DHT22;6448;48.916;8.990;2023-07-30T02:33:09;24.80;56.70
12769;DHT22;6448;48.916;8.990;2023-07-30T02:34:10;24.80;56.60
12769;DHT22;6448;48.916;8.990;2023-07-30T02:35:11;24.80;56.60
12769;DHT22;6448;48.916;8.990;2023-07-30T02:36:12;24.80;56.60
12769;DHT22;6448;48.916;8.990;2023-07-30T02:37:14;24.80;56.60
12769;DHT22;6448;48.916;8.990;2023-07-30T02:38:15;24.80;56.60
12769;DHT22;6448;48.916;8.990;2023-07-30T02:39:18;24.80;56.60
12769;DHT22;6448;48.916;8.990;2023-07-30T02:40:19;24.80;56.70
12769;DHT22;6448;48.916;8.990;2023-07-30T02:41:20;24.70;56.70
12769;DHT22;6448;48.916;8.990;2023-07-30T02:42:21;24.70;56.70
12769;DHT22;6448;48.916;8.990;2023-07-30T02:43:23;24.80;56.80
12769;DHT22;6448;48.916;8.990;2023-07-30T02:44:24;24.80;56.80
12769;DHT22;6448;48.916;8.990;2023-07-30T02:45:25;24.70;56.70
12769;DHT22;6448;48.916;8.990;2023-07-30T02:46:27;24.70;56.70
12769;DHT22;6448;48.916;8.990;2023-07-30T02:47:28;24.70;56.70
12769;DHT22;6448;48.916;8.990;2023-07-30T02:48:29;24.70;56.70
12769;DHT22;6448;48.916;8.990;2023-07-30T02:49:30;24.70;56.70
12769;DHT22;6448;48.916;8.990;2023-07-30T02:50:32;24.70;56.70
12769;DHT22;6448;48.916;8.990;2023-07-30T02:51:33;24.70;56.70
12769;DHT22;6448;48.916;8.990;2023-07-30T02:52:35;24.70;56.80
12769;DHT22;6448;48.916;8.990;2023-07-30T02:53:35;24.70;56.80
12769;DHT22;6448;48.916;8.990;2023-07-30T02:54:39;24.70;56.90
12769;DHT22;6448;48.916;8.990;2023-07-30T02:55:39;24.70;56.90
12769;DHT22;6448;48.916;8.990;2023-07-30T02:56:41;24.70;56.90
12769;DHT22;6448;48.916;8.990;2023-07-30T02:57:42;24.70;56.90
12769;DHT22;6448;48.916;8.990;2023-07-30T02:58:44;24.60;56.90
12769;DHT22;6448;48.916;8.990;2023-07-30T02:59:44;24.70;56.90
12769;DHT22;6448;48.916;8.990;2023-07-30T03:00:45;24.60;56.90
12769;DHT22;6448;48.916;8.990;2023-07-30T03:01:47;24.60;56.90
12769;DHT22;6448;48.916;8.990;2023-07-30T03:02:48;24.60;56.90
12769;DHT22;6448;48.916;8.990;2023-07-30T03:03:50;24.60;57.00
12769;DHT22;6448;48.916;8.990;2023-07-30T03:04:51;24.60;57.00
12769;DHT22;6448;48.916;8.990;2023-07-30T03:05:53;24.60;57.10
12769;DHT22;6448;48.916;8.990;2023-07-30T03:06:53;24.60;57.10
12769;DHT22;6448;48.916;8.990;2023-07-30T03:07:55;24.60;57.10
12769;DHT22;6448;48.916;8.990;2023-07-30T03:08:56;24.60;57.10
12769;DHT22;6448;48.916;8.990;2023-07-30T03:09:59;24.60;57.20
12769;DHT22;6448;48.916;8.990;2023-07-30T03:11:00;24.60;57.20
12769;DHT22;6448;48.916;8.990;2023-07-30T03:12:02;24.60;57.30
12769;DHT22;6448;48.916;8.990;2023-07-30T03:13:04;24.60;57.30
12769;DHT22;6448;48.916;8.990;2023-07-30T03:14:06;24.60;57.20
12769;DHT22;6448;48.916;8.990;2023-07-30T03:15:08;24.60;57.20
12769;DHT22;6448;48.916;8.990;2023-07-30T03:16:10;24.60;57.40
12769;DHT22;6448;48.916;8.990;2023-07-30T03:17:11;24.60;57.40
12769;DHT22;6448;48.916;8.990;2023-07-30T03:18:13;24.60;57.50
12769;DHT22;6448;48.916;8.990;2023-07-30T03:19:14;24.60;57.40
12769;DHT22;6448;48.916;8.990;2023-07-30T03:20:15;24.60;57.30
12769;DHT22;6448;48.916;8.990;2023-07-30T03:21:16;24.50;57.30
12769;DHT22;6448;48.916;8.990;2023-07-30T03:22:18;24.50;57.20
12769;DHT22;6448;48.916;8.990;2023-07-30T03:23:19;24.50;57.30
12769;DHT22;6448;48.916;8.990;2023-07-30T03:24:21;24.50;57.30
12769;DHT22;6448;48.916;8.990;2023-07-30T03:25:23;24.50;57.30
12769;DHT22;6448;48.916;8.990;2023-07-30T03:26:25;24.60;57.40
12769;DHT22;6448;48.916;8.990;2023-07-30T03:27:25;24.50;57.30
12769;DHT22;6448;48.916;8.990;2023-07-30T03:28:29;24.50;57.40
12769;DHT22;6448;48.916;8.990;2023-07-30T03:29:30;24.50;57.40
12769;DHT22;6448;48.916;8.990;2023-07-30T03:30:31;24.50;57.40
12769;DHT22;6448;48.916;8.990;2023-07-30T03:31:32;24.60;57.50
12769;DHT22;6448;48.916;8.990;2023-07-30T03:32:34;24.50;57.50
12769;DHT22;6448;48.916;8.990;2023-07-30T03:33:35;24.50;57.60
12769;DHT22;6448;48.916;8.990;2023-07-30T03:34:37;24.50;57.60
12769;DHT22;6448;48.916;8.990;2023-07-30T03:35:37;24.50;57.60
12769;DHT22;6448;48.916;8.990;2023-07-30T03:36:40;24.50;57.60
12769;DHT22;6448;48.916;8.990;2023-07-30T03:37:42;24.40;57.60
12769;DHT22;6448;48.916;8.990;2023-07-30T03:38:43;24.50;57.60
12769;DHT22;6448;48.916;8.990;2023-07-30T03:39:43;24.50;57.70
12769;DHT22;6448;48.916;8.990;2023-07-30T03:40:46;24.50;57.80
12769;DHT22;6448;48.916;8.990;2023-07-30T03:41:47;24.50;57.80
12769;DHT22;6448;48.916;8.990;2023-07-30T03:42:49;24.50;57.70
12769;DHT22;6448;48.916;8.990;2023-07-30T03:43:50;24.50;57.70
12769;DHT22;6448;48.916;8.990;2023-07-30T03:44:52;24.50;57.70
12769;DHT22;6448;48.916;8.990;2023-07-30T03:45:53;24.50;57.70
12769;DHT22;6448;48.916;8.990;2023-07-30T03:46:54;24.50;57.70
12769;DHT22;6448;48.916;8.990;2023-07-30T03:47:55;24.60;57.80
12769;DHT22;6448;48.916;8.990;2023-07-30T03:48:57;24.50;57.80
12769;DHT22;6448;48.916;8.990;2023-07-30T03:49:58;24.50;57.80
12769;DHT22;6448;48.916;8.990;2023-07-30T03:51:00;24.60;57.90
12769;DHT22;6448;48.916;8.990;2023-07-30T03:52:01;24.50;57.80
12769;DHT22;6448;48.916;8.990;2023-07-30T03:53:02;24.50;57.80
12769;DHT22;6448;48.916;8.990;2023-07-30T03:54:03;24.50;57.80
12769;DHT22;6448;48.916;8.990;2023-07-30T03:55:06;24.50;57.90
12769;DHT22;6448;48.916;8.990;2023-07-30T03:56:08;24.50;57.90
12769;DHT22;6448;48.916;8.990;2023-07-30T03:57:10;24.50;57.90
12769;DHT22;6448;48.916;8.990;2023-07-30T03:58:11;24.50;57.80
12769;DHT22;6448;48.916;8.990;2023-07-30T03:59:12;24.50;57.80
12769;DHT22;6448;48.916;8.990;2023-07-30T04:00:13;24.50;57.80
12769;DHT22;6448;48.916;8.990;2023-07-30T04:01:17;24.50;58.40
12769;DHT22;6448;48.916;8.990;2023-07-30T04:02:19;24.50;57.90
12769;DHT22;6448;48.916;8.990;2023-07-30T04:03:20;24.50;58.00
12769;DHT22;6448;48.916;8.990;2023-07-30T04:04:20;24.50;58.00
12769;DHT22;6448;48.916;8.990;2023-07-30T04:05:22;24.50;58.00
12769;DHT22;6448;48.916;8.990;2023-07-30T04:06:23;24.50;58.00
12769;DHT22;6448;48.916;8.990;2023-07-30T04:07:25;24.50;58.00
12769;DHT22;6448;48.916;8.990;2023-07-30T04:08:25;24.50;58.00
12769;DHT22;6448;48.916;8.990;2023-07-30T04:09:27;24.50;58.00
12769;DHT22;6448;48.916;8.990;2023-07-30T04:10:28;24.50;58.10
12769;DHT22;6448;48.916;8.990;2023-07-30T04:11:31;24.50;58.00
12769;DHT22;6448;48.916;8.990;2023-07-30T04:12:32;24.50;58.10
12769;DHT22;6448;48.916;8.990;2023-07-30T04:13:34;24.50;58.10
12769;DHT22;6448;48.916;8.990;2023-07-30T04:14:35;24.50;58.10
12769;DHT22;6448;48.916;8.990;2023-07-30T04:15:37;24.50;58.10
12769;DHT22;6448;48.916;8.990;2023-07-30T04:16:37;24.50;58.10
12769;DHT22;6448;48.916;8.990;2023-07-30T04:17:39;24.50;58.10
12769;DHT22;6448;48.916;8.990;2023-07-30T04:18:40;24.50;58.10
12769;DHT22;6448;48.916;8.990;2023-07-30T04:19:42;24.50;58.20
12769;DHT22;6448;48.916;8.990;2023-07-30T04:20:42;24.50;58.20
12769;DHT22;6448;48.916;8.990;2023-07-30T04:21:43;24.50;58.30
12769;DHT22;6448;48.916;8.990;2023-07-30T04:22:45;24.50;58.30
12769;DHT22;6448;48.916;8.990;2023-07-30T04:23:46;24.50;58.30
12769;DHT22;6448;48.916;8.990;2023-07-30T04:24:48;24.50;58.30
12769;DHT22;6448;48.916;8.990;2023-07-30T04:25:49;24.50;58.30
12769;DHT22;6448;48.916;8.990;2023-07-30T04:26:52;24.50;58.30
12769;DHT22;6448;48.916;8.990;2023-07-30T04:27:53;24.50;58.40
12769;DHT22;6448;48.916;8.990;2023-07-30T04:28:54;24.50;58.30
12769;DHT22;6448;48.916;8.990;2023-07-30T04:29:56;24.50;58.40
12769;DHT22;6448;48.916;8.990;2023-07-30T04:30:57;24.50;58.30
12769;DHT22;6448;48.916;8.990;2023-07-30T04:31:59;24.50;58.30
12769;DHT22;6448;48.916;8.990;2023-07-30T04:33:00;24.50;58.40
12769;DHT22;6448;48.916;8.990;2023-07-30T04:34:02;24.50;58.40
12769;DHT22;6448;48.916;8.990;2023-07-30T04:35:05;24.50;58.60
12769;DHT22;6448;48.916;8.990;2023-07-30T04:36:07;24.50;58.70
12769;DHT22;6448;48.916;8.990;2023-07-30T04:37:08;24.50;58.70
12769;DHT22;6448;48.916;8.990;2023-07-30T04:38:10;24.50;58.70
12769;DHT22;6448;48.916;8.990;2023-07-30T04:39:12;24.50;58.80
12769;DHT22;6448;48.916;8.990;2023-07-30T04:40:14;24.50;59.00
12769;DHT22;6448;48.916;8.990;2023-07-30T04:41:15;24.50;58.90
12769;DHT22;6448;48.916;8.990;2023-07-30T04:42:23;24.50;58.90
12769;DHT22;6448;48.916;8.990;2023-07-30T04:43:24;24.50;58.90
12769;DHT22;6448;48.916;8.990;2023-07-30T04:44:31;24.50;58.90
12769;DHT22;6448;48.916;8.990;2023-07-30T04:45:40;24.50;58.90
12769;DHT22;6448;48.916;8.990;2023-07-30T04:46:42;24.50;59.00
12769;DHT22;6448;48.916;8.990;2023-07-30T04:47:44;24.50;59.10
12769;DHT22;6448;48.916;8.990;2023-07-30T04:48:45;24.40;59.10
12769;DHT22;6448;48.916;8.990;2023-07-30T04:49:53;24.50;59.20
12769;DHT22;6448;48.916;8.990;2023-07-30T04:50:54;24.40;59.10
12769;DHT22;6448;48.916;8.990;2023-07-30T04:51:56;24.50;59.20
12769;DHT22;6448;48.916;8.990;2023-07-30T04:52:56;24.40;59.10
12769;DHT22;6448;48.916;8.990;2023-07-30T04:53:59;24.50;59.20
12769;DHT22;6448;48.916;8.990;2023-07-30T04:55:00;24.50;59.20
12769;DHT22;6448;48.916;8.990;2023-07-30T04:56:02;24.50;59.20
12769;DHT22;6448;48.916;8.990;2023-07-30T04:57:03;24.50;59.30
12769;DHT22;6448;48.916;8.990;2023-07-30T04:58:07;24.50;59.20
12769;DHT22;6448;48.916;8.990;2023-07-30T04:59:08;24.50;59.20
12769;DHT22;6448;48.916;8.990;2023-07-30T05:00:11;24.50;59.30
12769;DHT22;6448;48.916;8.990;2023-07-30T05:01:12;24.50;59.30
12769;DHT22;6448;48.916;8.990;2023-07-30T05:02:13;24.40;59.30
12769;DHT22;6448;48.916;8.990;2023-07-30T05:03:14;24.50;59.20
12769;DHT22;6448;48.916;8.990;2023-07-30T05:04:16;24.50;59.10
12769;DHT22;6448;48.916;8.990;2023-07-30T05:05:17;24.40;59.00
12769;DHT22;6448;48.916;8.990;2023-07-30T05:06:19;24.40;59.00
12769;DHT22;6448;48.916;8.990;2023-07-30T05:07:19;24.40;59.00
12769;DHT22;6448;48.916;8.990;2023-07-30T05:08:21;24.40;59.00
12769;DHT22;6448;48.916;8.990;2023-07-30T05:09:22;24.30;59.00
12769;DHT22;6448;48.916;8.990;2023-07-30T05:10:24;24.30;59.00
12769;DHT22;6448;48.916;8.990;2023-07-30T05:11:25;24.30;58.90
12769;DHT22;6448;48.916;8.990;2023-07-30T05:12:26;24.30;59.00
12769;DHT22;6448;48.916;8.990;2023-07-30T05:13:28;24.20;59.00
12769;DHT22;6448;48.916;8.990;2023-07-30T05:14:29;24.20;59.10
12769;DHT22;6448;48.916;8.990;2023-07-30T05:15:31;24.20;59.10
12769;DHT22;6448;48.916;8.990;2023-07-30T05:16:32;24.10;59.20
12769;DHT22;6448;48.916;8.990;2023-07-30T05:17:34;24.10;59.20
12769;DHT22;6448;48.916;8.990;2023-07-30T05:18:34;24.10;59.20
12769;DHT22;6448;48.916;8.990;2023-07-30T05:19:36;24.00;59.20
12769;DHT22;6448;48.916;8.990;2023-07-30T05:20:37;24.00;59.20
12769;DHT22;6448;48.916;8.990;2023-07-30T05:21:39;24.00;59.30
12769;DHT22;6448;48.916;8.990;2023-07-30T05:22:40;24.00;59.30
12769;DHT22;6448;48.916;8.990;2023-07-30T05:23:41;24.00;59.30
12769;DHT22;6448;48.916;8.990;2023-07-30T05:24:42;23.90;59.30
12769;DHT22;6448;48.916;8.990;2023-07-30T05:25:44;23.90;59.50
12769;DHT22;6448;48.916;8.990;2023-07-30T05:26:44;23.90;59.60
12769;DHT22;6448;48.916;8.990;2023-07-30T05:27:46;23.90;59.70
12769;DHT22;6448;48.916;8.990;2023-07-30T05:28:48;23.90;59.80
12769;DHT22;6448;48.916;8.990;2023-07-30T05:29:50;23.90;59.70
12769;DHT22;6448;48.916;8.990;2023-07-30T05:30:51;23.90;59.70
12769;DHT22;6448;48.916;8.990;2023-07-30T05:31:52;23.80;59.70
12769;DHT22;6448;48.916;8.990;2023-07-30T05:32:53;23.80;59.70
12769;DHT22;6448;48.916;8.990;2023-07-30T05:33:55;23.80;59.80
12769;DHT22;6448;48.916;8.990;2023-07-30T05:34:56;23.80;59.80
12769;DHT22;6448;48.916;8.990;2023-07-30T05:35:57;23.80;59.70
12769;DHT22;6448;48.916;8.990;2023-07-30T05:36:58;23.80;59.60
12769;DHT22;6448;48.916;8.990;2023-07-30T05:38:00;23.80;59.60
12769;DHT22;6448;48.916;8.990;2023-07-30T05:39:01;23.80;59.60
12769;DHT22;6448;48.916;8.990;2023-07-30T05:40:04;23.80;59.60
12769;DHT22;6448;48.916;8.990;2023-07-30T05:41:05;23.80;59.60
12769;DHT22;6448;48.916;8.990;2023-07-30T05:42:06;23.80;59.60
12769;DHT22;6448;48.916;8.990;2023-07-30T05:43:07;23.80;59.70
12769;DHT22;6448;48.916;8.990;2023-07-30T05:44:10;23.80;59.70
12769;DHT22;6448;48.916;8.990;2023-07-30T05:45:11;23.80;59.70
12769;DHT22;6448;48.916;8.990;2023-07-30T05:46:13;23.80;59.70
12769;DHT22;6448;48.916;8.990;2023-07-30T05:47:14;23.80;59.70
12769;DHT22;6448;48.916;8.990;2023-07-30T05:48:16;23.80;59.80
12769;DHT22;6448;48.916;8.990;2023-07-30T05:49:16;23.80;59.70
12769;DHT22;6448;48.916;8.990;2023-07-30T05:50:18;23.80;59.60
12769;DHT22;6448;48.916;8.990;2023-07-30T05:51:19;23.80;59.60
12769;DHT22;6448;48.916;8.990;2023-07-30T05:52:21;23.80;59.50
12769;DHT22;6448;48.916;8.990;2023-07-30T05:53:22;23.80;59.50
12769;DHT22;6448;48.916;8.990;2023-07-30T05:54:24;23.80;59.50
12769;DHT22;6448;48.916;8.990;2023-07-30T05:55:25;23.80;59.60
12769;DHT22;6448;48.916;8.990;2023-07-30T05:56:26;23.80;59.60
12769;DHT22;6448;48.916;8.990;2023-07-30T05:57:27;23.80;59.60
12769;DHT22;6448;48.916;8.990;2023-07-30T05:58:29;23.80;59.60
12769;DHT22;6448;48.916;8.990;2023-07-30T05:59:31;23.80;59.70
12769;DHT22;6448;48.916;8.990;2023-07-30T06:00:33;23.80;59.80
12769;DHT22;6448;48.916;8.990;2023-07-30T06:01:34;23.80;59.80
12769;DHT22;6448;48.916;8.990;2023-07-30T06:02:35;23.80;59.90
12769;DHT22;6448;48.916;8.990;2023-07-30T06:03:36;23.80;60.00
12769;DHT22;6448;48.916;8.990;2023-07-30T06:04:38;23.80;60.00
12769;DHT22;6448;48.916;8.990;2023-07-30T06:05:39;23.80;60.10
12769;DHT22;6448;48.916;8.990;2023-07-30T06:06:41;23.80;60.20
12769;DHT22;6448;48.916;8.990;2023-07-30T06:07:42;23.80;60.20
12769;DHT22;6448;48.916;8.990;2023-07-30T06:08:44;23.80;60.20
12769;DHT22;6448;48.916;8.990;2023-07-30T06:09:45;23.80;60.20
12769;DHT22;6448;48.916;8.990;2023-07-30T06:10:46;23.80;60.20
12769;DHT22;6448;48.916;8.990;2023-07-30T06:11:47;23.80;60.30
12769;DHT22;6448;48.916;8.990;2023-07-30T06:12:49;23.80;60.30
12769;DHT22;6448;48.916;8.990;2023-07-30T06:13:50;23.80;60.20
12769;DHT22;6448;48.916;8.990;2023-07-30T06:14:53;23.80;60.20
12769;DHT22;6448;48.916;8.990;2023-07-30T06:15:54;23.80;60.20
12769;DHT22;6448;48.916;8.990;2023-07-30T06:16:55;23.80;60.20
12769;DHT22;6448;48.916;8.990;2023-07-30T06:17:56;23.80;60.10
12769;DHT22;6448;48.916;8.990;2023-07-30T06:18:57;23.80;60.10
12769;DHT22;6448;48.916;8.990;2023-07-30T06:19:59;23.80;60.20
12769;DHT22;6448;48.916;8.990;2023-07-30T06:20:59;23.80;60.30
12769;DHT22;6448;48.916;8.990;2023-07-30T06:22:01;23.80;60.30
12769;DHT22;6448;48.916;8.990;2023-07-30T06:23:02;23.80;60.40
12769;DHT22;6448;48.916;8.990;2023-07-30T06:24:04;23.80;60.50
12769;DHT22;6448;48.916;8.990;2023-07-30T06:25:06;23.80;60.50
12769;DHT22;6448;48.916;8.990;2023-07-30T06:26:07;23.80;60.60
12769;DHT22;6448;48.916;8.990;2023-07-30T06:27:08;23.90;60.60
12769;DHT22;6448;48.916;8.990;2023-07-30T06:28:10;23.90;60.60
12769;DHT22;6448;48.916;8.990;2023-07-30T06:29:11;23.90;60.60
12769;DHT22;6448;48.916;8.990;2023-07-30T06:30:14;23.90;60.70
12769;DHT22;6448;48.916;8.990;2023-07-30T06:31:15;23.90;60.80
12769;DHT22;6448;48.916;8.990;2023-07-30T06:32:16;24.00;60.90
12769;DHT22;6448;48.916;8.990;2023-07-30T06:33:17;24.00;60.90
12769;DHT22;6448;48.916;8.990;2023-07-30T06:34:19;23.90;60.80
12769;DHT22;6448;48.916;8.990;2023-07-30T06:35:20;24.00;61.00